createdAt,value
2018-12-26T00:02:53.375Z,14.27
2018-12-26T00:07:49.393Z,15.23
2018-12-26T00:12:47.489Z,15.80
2018-12-26T00:17:45.748Z,14.90
2018-12-26T00:22:41.798Z,16.87
2018-12-26T00:27:37.901Z,18.20
2018-12-26T00:32:34.268Z,15.13
2018-12-26T00:37:30.280Z,15.93
2018-12-26T00:42:26.222Z,15.37
2018-12-26T00:47:22.152Z,13.87
2018-12-26T00:52:18.668Z,14.83
2018-12-26T00:57:15.827Z,13.20
2018-12-26T01:02:11.894Z,17.77
2018-12-26T01:07:07.810Z,15.37
2018-12-26T01:12:03.652Z,15.60
2018-12-26T01:16:59.689Z,15.97
2018-12-26T01:21:55.755Z,17.20
2018-12-26T01:26:51.739Z,16.30
2018-12-26T04:36:33.991Z,19.97
2018-12-26T04:41:48.794Z,20.47
2018-12-26T04:47:03.657Z,19.73
2018-12-26T04:52:18.682Z,19.53
2018-12-26T04:57:33.435Z,20.43
2018-12-26T05:16:32.826Z,24.40
2018-12-26T05:28:37.135Z,22.03
2018-12-26T05:34:33.182Z,21.97
2018-12-26T05:46:33.153Z,21.17
2018-12-26T05:57:32.968Z,21.73
2018-12-26T06:03:44.534Z,22.23
2018-12-26T06:09:37.310Z,22.60
2018-12-26T06:15:32.873Z,21.10
2018-12-26T06:21:44.488Z,23.10
2018-12-26T06:27:37.254Z,23.87
2018-12-26T06:44:48.808Z,20.77
2018-12-26T06:56:34.188Z,19.70
2018-12-26T07:13:34.611Z,21.70
2018-12-26T07:24:42.472Z,22.33
2018-12-26T07:29:57.257Z,21.33
2018-12-26T07:35:12.138Z,20.10
2018-12-26T07:40:18.130Z,22.33
2018-12-26T07:45:33.161Z,21.23
2018-12-26T07:55:49.864Z,19.10
2018-12-26T08:01:04.851Z,18.90
2018-12-26T08:06:35.648Z,20.50
2018-12-26T08:11:38.434Z,18.20
2018-12-26T08:16:53.480Z,20.37
2018-12-26T08:22:08.311Z,20.43
2018-12-26T08:27:21.729Z,20.77
2018-12-26T08:37:56.910Z,20.17
2018-12-26T08:43:30.910Z,19.23
2018-12-26T08:48:46.039Z,20.23
2018-12-26T08:54:01.077Z,21.50
2018-12-26T08:59:37.427Z,26.87
2018-12-26T09:04:37.727Z,22.13
2018-12-26T09:09:52.689Z,19.00
2018-12-26T09:15:09.632Z,19.70
2018-12-26T09:32:47.557Z,38.83
2018-12-26T09:38:21.726Z,22.77
2018-12-26T09:44:23.653Z,39.50
2018-12-26T09:54:52.499Z,22.33
2018-12-26T10:06:29.306Z,38.33
2018-12-26T10:11:44.181Z,31.63
2018-12-26T10:16:58.991Z,26.13
2018-12-26T10:22:34.297Z,18.07
2018-12-26T10:27:41.598Z,23.60
2018-12-26T10:32:59.865Z,22.07
2018-12-26T10:38:14.651Z,21.83
2018-12-26T10:43:29.635Z,19.40
2018-12-26T10:48:44.639Z,18.07
2018-12-26T10:53:59.563Z,19.47
2018-12-26T10:59:10.380Z,20.07
2018-12-26T11:04:23.747Z,18.87
2018-12-26T11:09:19.482Z,21.03
2018-12-26T11:14:15.295Z,18.60
2018-12-26T11:19:11.164Z,24.20
2018-12-26T11:24:06.928Z,18.13
2018-12-26T11:29:02.652Z,16.47
2018-12-26T11:33:58.404Z,16.17
2018-12-26T11:38:54.177Z,18.73
2018-12-26T11:43:49.883Z,18.67
2018-12-26T11:48:45.792Z,19.57
2018-12-26T11:53:41.554Z,19.97
2018-12-26T11:58:37.303Z,17.30
2018-12-26T12:03:33.035Z,19.30
2018-12-26T12:08:28.767Z,18.27
2018-12-26T12:13:24.516Z,19.43
2018-12-26T12:18:20.371Z,22.40
2018-12-26T12:23:16.123Z,18.23
2018-12-26T12:28:11.912Z,18.43
2018-12-26T12:33:07.718Z,22.43
2018-12-26T12:38:03.578Z,20.03
2018-12-26T12:42:59.471Z,19.43
2018-12-26T12:47:55.206Z,15.07
2018-12-26T12:52:50.979Z,18.83
2018-12-26T12:57:46.766Z,16.87
2018-12-26T13:02:43.388Z,18.47
2018-12-26T13:07:39.249Z,19.23
2018-12-26T13:12:35.261Z,19.70
2018-12-26T13:17:30.994Z,18.83
2018-12-26T13:22:26.974Z,19.93
2018-12-26T13:27:22.985Z,16.20
2018-12-26T13:32:18.928Z,18.93
2018-12-26T13:37:44.794Z,17.13
2018-12-26T13:42:40.757Z,17.37
2018-12-26T13:47:36.720Z,18.30
2018-12-26T13:52:32.607Z,18.27
2018-12-26T13:58:37.316Z,19.97
2018-12-26T14:03:38.970Z,18.30
2018-12-26T14:09:35.669Z,18.47
2018-12-26T14:14:32.171Z,17.43
2018-12-26T14:19:37.300Z,17.53
2018-12-26T14:24:33.822Z,18.70
2018-12-26T14:29:30.421Z,20.27
2018-12-26T14:34:37.604Z,18.10
2018-12-26T14:39:37.762Z,20.30
2018-12-26T14:44:37.462Z,17.87
2018-12-26T14:49:40.211Z,19.30
2018-12-26T14:54:40.927Z,18.30
2018-12-26T14:59:37.976Z,20.20
2018-12-26T15:04:40.993Z,16.43
2018-12-26T15:09:43.851Z,19.40
2018-12-26T15:14:45.657Z,24.10
2018-12-26T15:19:41.461Z,18.70
2018-12-26T15:42:21.629Z,21.33
2018-12-26T17:17:31.787Z,22.13
2018-12-26T17:22:28.198Z,23.13
2018-12-26T18:01:14.108Z,23.13
2018-12-26T18:06:28.931Z,24.63
2018-12-26T18:11:44.631Z,25.23
2018-12-26T18:16:40.649Z,24.23
2018-12-26T18:22:15.895Z,21.10
2018-12-26T18:27:30.929Z,24.03
2018-12-26T18:32:27.167Z,25.83
2018-12-26T18:37:23.057Z,26.20
2018-12-26T18:48:20.309Z,25.07
2018-12-26T18:53:35.364Z,24.83
2018-12-26T19:10:11.259Z,26.57
2018-12-26T19:15:26.089Z,27.60
2018-12-26T19:20:52.725Z,24.57
2018-12-26T19:25:57.489Z,26.73
2018-12-26T19:31:12.409Z,27.33
2018-12-26T19:36:27.295Z,27.10
2018-12-26T19:41:23.110Z,25.80
2018-12-26T19:46:25.387Z,24.70
2018-12-26T19:51:27.953Z,28.77
2018-12-26T19:56:23.730Z,28.43
2018-12-26T20:01:19.509Z,27.33
2018-12-26T20:06:15.251Z,29.27
2018-12-26T20:32:43.209Z,29.60
2018-12-26T20:38:24.405Z,30.03
2018-12-26T20:43:39.296Z,30.20
2018-12-26T20:49:17.829Z,32.27
2018-12-26T20:54:13.833Z,32.03
2018-12-26T20:59:09.670Z,31.97
2018-12-26T21:04:23.155Z,32.13
2018-12-26T21:09:22.644Z,32.33
2018-12-26T21:14:18.449Z,31.40
2018-12-26T21:19:14.318Z,28.27
2018-12-26T21:24:10.164Z,30.57
2018-12-26T21:29:06.042Z,31.10
2018-12-26T21:55:20.012Z,30.97
2018-12-26T22:00:29.679Z,31.17
2018-12-26T22:10:33.143Z,34.20
2018-12-26T22:15:38.584Z,30.63
2018-12-26T22:20:34.334Z,33.77
2018-12-26T22:25:30.108Z,32.10
2018-12-26T22:30:27.053Z,30.80
2018-12-26T22:35:22.872Z,32.33
2018-12-26T22:45:43.589Z,29.00
2018-12-26T22:50:52.718Z,29.80
2018-12-26T22:55:48.570Z,33.77
2018-12-26T23:01:03.254Z,34.77
2018-12-26T23:05:59.114Z,30.90
2018-12-26T23:11:01.742Z,34.27
2018-12-26T23:28:23.429Z,30.73
2018-12-26T23:33:19.435Z,31.90
2018-12-26T23:38:15.390Z,37.13
2018-12-26T23:43:11.693Z,35.80
2018-12-26T23:48:09.412Z,31.90
2018-12-26T23:53:05.301Z,32.93
2018-12-26T23:58:04.217Z,30.33
